Terminal Aerodrome Forecast
Issued by NWS

Home | Current Version | Previous Version | Graphics & Text | Print | Product List | Glossary On
Versions: 1 2 3 4 5 6 7 8 9 10 11 12 13 14
240
FTUS42 KMHX 041617 AAA
TAFPGV
TAF AMD
KPGV 041617Z 0416/0512 20009KT 5SM -RA BR SCT007 BKN025
      TEMPO 0417/0420 BKN007
     FM042000 04011KT 4SM -RA OVC007
     FM050000 03007KT 4SM -RA BR OVC005
     FM050600 01014G21KT 6SM -RA BR OVC005
      AMD LTD TO CLD VIS AND WIND=

USA.gov is the U.S. government's official web portal to all federal, state and local government web resources and services.